createdAt,value
2023-08-11T00:08:29.444Z,13.1
2023-08-11T00:28:41.533Z,14.9
2023-08-11T00:38:47.603Z,15
2023-08-11T00:48:53.653Z,21.7
2023-08-11T00:58:59.700Z,18.9
2023-08-11T01:09:05.742Z,16.6
2023-08-11T01:29:17.836Z,19.6
2023-08-11T01:39:23.882Z,22
2023-08-11T01:49:29.939Z,21.7
2023-08-11T01:59:36.056Z,22.5
2023-08-11T02:09:42.250Z,22.4
2023-08-11T02:19:48.306Z,26.7
2023-08-11T02:29:54.418Z,20
2023-08-11T02:40:00.561Z,19.8
2023-08-11T02:50:06.685Z,23.5
2023-08-11T03:00:12.814Z,25.9
2023-08-11T03:10:17.917Z,20
2023-08-11T03:20:22.983Z,29.1
2023-08-11T03:30:29.026Z,21.6
2023-08-11T03:40:35.082Z,24
2023-08-11T03:50:41.139Z,25.6
2023-08-11T04:00:47.178Z,25.5
2023-08-11T04:10:53.228Z,25.7
2023-08-11T04:20:59.269Z,24.9
2023-08-11T04:31:05.311Z,30.7
2023-08-11T04:41:11.443Z,30
2023-08-11T04:51:17.416Z,36.3
2023-08-11T05:01:23.450Z,28
2023-08-11T05:11:29.501Z,30
2023-08-11T05:21:35.565Z,25.2
2023-08-11T05:31:40.610Z,27.6
2023-08-11T05:41:46.703Z,24
2023-08-11T05:51:52.719Z,22.9
2023-08-11T06:01:58.767Z,16.7
2023-08-11T06:22:10.849Z,21.1
2023-08-11T06:32:16.907Z,25.2
2023-08-11T06:42:21.979Z,21.2
2023-08-11T06:52:27.048Z,24.9
2023-08-11T07:02:33.109Z,19.4
2023-08-11T07:12:39.146Z,18.6
2023-08-11T07:22:45.192Z,20
2023-08-11T07:32:51.231Z,14.6
2023-08-11T07:42:57.289Z,16
2023-08-11T07:53:03.347Z,17.1
2023-08-11T08:03:09.373Z,16.1
2023-08-11T08:13:15.431Z,13
2023-08-11T08:23:21.490Z,12.9
2023-08-11T08:33:27.534Z,7.5
2023-08-11T08:43:33.568Z,8
2023-08-11T08:53:39.626Z,9.1
2023-08-11T09:03:45.669Z,10.5
2023-08-11T09:13:50.728Z,17
2023-08-11T09:23:56.771Z,5.7
2023-08-11T09:34:02.851Z,23.8
2023-08-11T09:44:08.865Z,13.2
2023-08-11T09:54:14.915Z,6.6
2023-08-11T10:04:20.988Z,23.8
2023-08-11T10:14:27.071Z,16.8
2023-08-11T10:24:33.058Z,10
2023-08-11T10:34:39.113Z,8.3
2023-08-11T10:44:45.157Z,10.3
2023-08-11T10:54:51.197Z,8.3
2023-08-11T11:04:57.252Z,5.9
2023-08-11T11:25:09.343Z,9
2023-08-11T11:35:14.413Z,10.3
2023-08-11T11:45:20.472Z,11.8
2023-08-11T11:55:26.516Z,7.1
2023-08-11T12:05:32.587Z,10.2
2023-08-11T12:15:38.604Z,6.6
2023-08-11T12:25:44.666Z,8
2023-08-11T12:35:50.709Z,13.7
2023-08-11T12:45:56.751Z,9.2
2023-08-11T12:56:02.816Z,8.7
2023-08-11T13:06:08.855Z,7.6
2023-08-11T13:16:14.910Z,9.5
2023-08-11T13:26:20.961Z,6.7
2023-08-11T13:36:27.003Z,4.5
2023-08-11T13:46:32.067Z,5.3
2023-08-11T13:56:38.119Z,10.2
2023-08-11T14:06:44.341Z,10.8
2023-08-11T14:16:50.229Z,5.1
2023-08-11T14:26:56.269Z,5.5
2023-08-11T14:37:02.326Z,5.2
2023-08-11T14:47:08.382Z,7.3
2023-08-11T14:57:14.788Z,3.3
2023-08-11T15:07:20.462Z,4.8
2023-08-11T15:17:26.522Z,7.8
2023-08-11T15:27:32.557Z,7.7
2023-08-11T15:37:38.624Z,6.1
2023-08-11T15:47:44.668Z,7.3
2023-08-11T15:57:49.733Z,6.8
2023-08-11T16:07:55.784Z,11.1
2023-08-11T16:18:01.825Z,11.6
2023-08-11T16:28:07.892Z,13.1
2023-08-11T16:38:13.956Z,8.4
2023-08-11T16:48:19.974Z,13.5
2023-08-11T16:58:26.029Z,8.8
2023-08-11T17:08:32.078Z,11.8
2023-08-11T17:18:38.114Z,13.4
2023-08-11T17:28:44.169Z,11.4
2023-08-11T17:38:50.231Z,14.2
2023-08-11T17:48:56.266Z,15.5
2023-08-11T17:59:02.334Z,13.8
2023-08-11T18:09:07.382Z,11.1
2023-08-11T18:19:13.516Z,14.8
2023-08-11T18:29:19.483Z,12.5
2023-08-11T18:39:25.541Z,10.8
2023-08-11T18:49:31.626Z,14.9
2023-08-11T18:59:37.658Z,17.6
2023-08-11T19:09:43.690Z,18.2
2023-08-11T19:19:49.727Z,13.3
2023-08-11T19:29:55.761Z,11.6
2023-08-11T19:40:01.863Z,20
2023-08-11T19:50:07.868Z,15.1
2023-08-11T20:00:13.924Z,15.7
2023-08-11T20:10:19.976Z,18.5
2023-08-11T20:20:25.042Z,12.7
2023-08-11T20:30:31.095Z,17.9
2023-08-11T20:40:37.122Z,20
2023-08-11T20:50:43.183Z,13.3
2023-08-11T21:00:49.232Z,16.9
2023-08-11T21:10:55.268Z,20.8
2023-08-11T21:21:01.324Z,16.5
2023-08-11T21:31:07.366Z,19.3
2023-08-11T21:41:13.524Z,16.2
2023-08-11T21:51:19.517Z,22.7
2023-08-11T22:01:25.514Z,17.3
2023-08-11T22:11:31.557Z,18.6
2023-08-11T22:21:37.617Z,18.2
2023-08-11T22:31:42.677Z,22.3
2023-08-11T22:41:48.723Z,25.2
2023-08-11T22:51:54.755Z,26.8
2023-08-11T23:02:00.816Z,27
2023-08-11T23:12:06.864Z,25.4
2023-08-11T23:22:12.919Z,31.6
2023-08-11T23:32:18.958Z,27.3
2023-08-11T23:42:25.004Z,30.2
2023-08-11T23:52:31.114Z,31.5
